Terminal Aerodrome Forecast
Issued by NWS

Home | Current Version | Previous Version | Text Only | Print | Product List | Glossary On
Versions: 1 2 3 4 5 6 7 8 9 10 11 12 13 14 15 16 17 18 19 20 21
000
FTUS42 KTAE 161700
TAFECP
TAF
KECP 161723Z 1618/1718 11004KT P6SM VCTS BKN020CB
      TEMPO 1619/1622 VRB10G20KT 2SM +TSRA OVC015CB
     FM162200 28007KT 5SM -TSRA BKN025CB OVC100
     FM170300 33004KT P6SM SCT100 BKN250=

USA.gov is the U.S. government's official web portal to all federal, state and local government web resources and services.